sensor_id;sensor_type;location;lat;lon;timestamp;pressure;altitude;pressure_sealevel;temperature;humidity
6599;BME280;3335;43.198;27.918;2023-03-05T00:00:08;148650.06;;;5.49;100.00
6599;BME280;3335;43.198;27.918;2023-03-05T00:02:37;148658.75;;;5.53;100.00
6599;BME280;3335;43.198;27.918;2023-03-05T00:05:04;148676.22;;;5.60;100.00
6599;BME280;3335;43.198;27.918;2023-03-05T00:07:31;148691.09;;;5.66;100.00
6599;BME280;3335;43.198;27.918;2023-03-05T00:09:59;148696.09;;;5.68;100.00
6599;BME280;3335;43.198;27.918;2023-03-05T00:12:27;148696.09;;;5.68;100.00
6599;BME280;3335;43.198;27.918;2023-03-05T00:14:54;148696.09;;;5.68;100.00
6599;BME280;3335;43.198;27.918;2023-03-05T00:17:21;148663.75;;;5.55;100.00
6599;BME280;3335;43.198;27.918;2023-03-05T00:19:49;148716.00;;;5.76;100.00
6599;BME280;3335;43.198;27.918;2023-03-05T00:22:16;148716.00;;;5.76;100.00
6599;BME280;3335;43.198;27.918;2023-03-05T00:24:43;148718.50;;;5.77;100.00
6599;BME280;3335;43.198;27.918;2023-03-05T00:27:10;148713.50;;;5.75;100.00
6599;BME280;3335;43.198;27.918;2023-03-05T00:29:37;148703.56;;;5.71;100.00
6599;BME280;3335;43.198;27.918;2023-03-05T00:32:04;148691.09;;;5.66;100.00
6599;BME280;3335;43.198;27.918;2023-03-05T00:34:31;148694.84;;;5.67;100.00
6599;BME280;3335;43.198;27.918;2023-03-05T00:36:59;148696.09;;;5.68;100.00
6599;BME280;3335;43.198;27.918;2023-03-05T00:39:26;148678.66;;;5.61;100.00
6599;BME280;3335;43.198;27.918;2023-03-05T00:41:53;148671.22;;;5.58;100.00
6599;BME280;3335;43.198;27.918;2023-03-05T00:44:20;148668.72;;;5.57;100.00
6599;BME280;3335;43.198;27.918;2023-03-05T00:46:47;148658.75;;;5.53;100.00
6599;BME280;3335;43.198;27.918;2023-03-05T00:49:14;148616.47;;;5.36;100.00
6599;BME280;3335;43.198;27.918;2023-03-05T00:51:41;148611.47;;;5.34;100.00
6599;BME280;3335;43.198;27.918;2023-03-05T00:54:09;148600.28;;;5.29;100.00
6599;BME280;3335;43.198;27.918;2023-03-05T00:56:36;148582.91;;;5.22;100.00
6599;BME280;3335;43.198;27.918;2023-03-05T00:59:03;148589.09;;;5.24;100.00
6599;BME280;3335;43.198;27.918;2023-03-05T01:01:30;148564.22;;;5.14;100.00
6599;BME280;3335;43.198;27.918;2023-03-05T01:03:57;148571.69;;;5.17;100.00
6599;BME280;3335;43.198;27.918;2023-03-05T01:06:25;148569.19;;;5.16;100.00
6599;BME280;3335;43.198;27.918;2023-03-05T01:08:54;148566.72;;;5.15;100.00
6599;BME280;3335;43.198;27.918;2023-03-05T01:11:23;148539.31;;;5.04;100.00
6599;BME280;3335;43.198;27.918;2023-03-05T01:13:50;148534.38;;;5.02;100.00
6599;BME280;3335;43.198;27.918;2023-03-05T01:16:16;148543.06;;;5.06;100.00
6599;BME280;3335;43.198;27.918;2023-03-05T01:18:43;148546.81;;;5.07;100.00
6599;BME280;3335;43.198;27.918;2023-03-05T01:21:10;148545.56;;;5.07;100.00
6599;BME280;3335;43.198;27.918;2023-03-05T01:23:37;148544.31;;;5.06;100.00
6599;BME280;3335;43.198;27.918;2023-03-05T01:26:04;148536.88;;;5.03;100.00
6599;BME280;3335;43.198;27.918;2023-03-05T01:28:34;148408.78;;;4.51;100.00
6599;BME280;3335;43.198;27.918;2023-03-05T01:31:06;148541.81;;;5.05;100.00
6599;BME280;3335;43.198;27.918;2023-03-05T01:33:33;148529.38;;;5.00;100.00
6599;BME280;3335;43.198;27.918;2023-03-05T01:36:00;148530.63;;;5.01;100.00
6599;BME280;3335;43.198;27.918;2023-03-05T01:38:27;148530.63;;;5.01;100.00
6599;BME280;3335;43.198;27.918;2023-03-05T01:40:54;148521.94;;;4.97;100.00
6599;BME280;3335;43.198;27.918;2023-03-05T01:43:24;148519.44;;;4.96;100.00
6599;BME280;3335;43.198;27.918;2023-03-05T01:49:01;148531.88;;;5.01;100.00
6599;BME280;3335;43.198;27.918;2023-03-05T01:51:30;148528.13;;;5.00;100.00
6599;BME280;3335;43.198;27.918;2023-03-05T01:53:59;148536.88;;;5.03;100.00
6599;BME280;3335;43.198;27.918;2023-03-05T01:56:28;148554.25;;;5.10;100.00
6599;BME280;3335;43.198;27.918;2023-03-05T01:58:56;148514.50;;;4.94;100.00
6599;BME280;3335;43.198;27.918;2023-03-05T02:01:30;148418.72;;;4.55;100.00
6599;BME280;3335;43.198;27.918;2023-03-05T02:03:59;148556.75;;;5.11;100.00
6599;BME280;3335;43.198;27.918;2023-03-05T02:06:27;148561.72;;;5.13;100.00
6599;BME280;3335;43.198;27.918;2023-03-05T02:08:54;148549.31;;;5.08;100.00
6599;BME280;3335;43.198;27.918;2023-03-05T02:11:22;148549.31;;;5.08;100.00
6599;BME280;3335;43.198;27.918;2023-03-05T02:13:48;148554.25;;;5.10;100.00
6599;BME280;3335;43.198;27.918;2023-03-05T02:16:15;148559.25;;;5.12;100.00
6599;BME280;3335;43.198;27.918;2023-03-05T02:18:42;148560.50;;;5.13;100.00
6599;BME280;3335;43.198;27.918;2023-03-05T02:21:11;148556.75;;;5.11;100.00
6599;BME280;3335;43.198;27.918;2023-03-05T02:23:38;148499.56;;;4.88;100.00
6599;BME280;3335;43.198;27.918;2023-03-05T02:26:07;148548.06;;;5.08;100.00
6599;BME280;3335;43.198;27.918;2023-03-05T02:28:37;148523.19;;;4.98;100.00
6599;BME280;3335;43.198;27.918;2023-03-05T02:31:09;148531.88;;;5.01;100.00
6599;BME280;3335;43.198;27.918;2023-03-05T02:33:38;148521.94;;;4.97;100.00
6599;BME280;3335;43.198;27.918;2023-03-05T02:36:06;148500.81;;;4.89;100.00
6599;BME280;3335;43.198;27.918;2023-03-05T02:38:35;148448.53;;;4.67;100.00
6599;BME280;3335;43.198;27.918;2023-03-05T02:41:02;148434.88;;;4.62;100.00
6599;BME280;3335;43.198;27.918;2023-03-05T02:43:29;148447.28;;;4.67;100.00
6599;BME280;3335;43.198;27.918;2023-03-05T02:45:56;148442.34;;;4.65;100.00
6599;BME280;3335;43.198;27.918;2023-03-05T02:48:23;148429.91;;;4.60;100.00
6599;BME280;3335;43.198;27.918;2023-03-05T02:50:50;148413.72;;;4.53;100.00
6599;BME280;3335;43.198;27.918;2023-03-05T02:53:17;148385.16;;;4.42;100.00
6599;BME280;3335;43.198;27.918;2023-03-05T02:55:47;148397.59;;;4.47;100.00
6599;BME280;3335;43.198;27.918;2023-03-05T02:58:14;148375.19;;;4.37;100.00
6599;BME280;3335;43.198;27.918;2023-03-05T03:00:41;148345.38;;;4.25;100.00
6599;BME280;3335;43.198;27.918;2023-03-05T03:03:08;148350.34;;;4.27;100.00
6599;BME280;3335;43.198;27.918;2023-03-05T03:05:35;148365.25;;;4.33;100.00
6599;BME280;3335;43.198;27.918;2023-03-05T03:08:03;148345.38;;;4.25;100.00
6599;BME280;3335;43.198;27.918;2023-03-05T03:10:30;148355.31;;;4.29;100.00
6599;BME280;3335;43.198;27.918;2023-03-05T03:12:58;148352.81;;;4.28;100.00
6599;BME280;3335;43.198;27.918;2023-03-05T03:15:25;148332.94;;;4.20;100.00
6599;BME280;3335;43.198;27.918;2023-03-05T03:17:53;148325.50;;;4.17;100.00
6599;BME280;3335;43.198;27.918;2023-03-05T03:20:20;148344.13;;;4.25;100.00
6599;BME280;3335;43.198;27.918;2023-03-05T03:22:47;148332.94;;;4.20;100.00
6599;BME280;3335;43.198;27.918;2023-03-05T03:25:15;148339.16;;;4.23;100.00
6599;BME280;3335;43.198;27.918;2023-03-05T03:27:42;148325.50;;;4.17;100.00
6599;BME280;3335;43.198;27.918;2023-03-05T03:30:12;148324.25;;;4.17;100.00
6599;BME280;3335;43.198;27.918;2023-03-05T03:32:39;148323.00;;;4.16;100.00
6599;BME280;3335;43.198;27.918;2023-03-05T03:35:07;148318.00;;;4.14;100.00
6599;BME280;3335;43.198;27.918;2023-03-05T03:37:34;148318.00;;;4.14;100.00
6599;BME280;3335;43.198;27.918;2023-03-05T03:40:01;148310.56;;;4.11;100.00
6599;BME280;3335;43.198;27.918;2023-03-05T03:42:30;148309.31;;;4.11;100.00
6599;BME280;3335;43.198;27.918;2023-03-05T03:44:56;148325.50;;;4.17;100.00
6599;BME280;3335;43.198;27.918;2023-03-05T03:47:26;148326.75;;;4.18;100.00
6599;BME280;3335;43.198;27.918;2023-03-05T03:49:53;148332.94;;;4.20;100.00
6599;BME280;3335;43.198;27.918;2023-03-05T03:52:20;148342.88;;;4.24;100.00
6599;BME280;3335;43.198;27.918;2023-03-05T03:54:47;148354.06;;;4.29;100.00
6599;BME280;3335;43.198;27.918;2023-03-05T03:57:15;148347.84;;;4.26;100.00
6599;BME280;3335;43.198;27.918;2023-03-05T03:59:41;148347.84;;;4.26;100.00
6599;BME280;3335;43.198;27.918;2023-03-05T04:02:10;148345.38;;;4.25;100.00
6599;BME280;3335;43.198;27.918;2023-03-05T04:04:38;148345.38;;;4.25;100.00
6599;BME280;3335;43.198;27.918;2023-03-05T04:07:05;148350.34;;;4.27;100.00
6599;BME280;3335;43.198;27.918;2023-03-05T04:09:32;148346.63;;;4.26;100.00
6599;BME280;3335;43.198;27.918;2023-03-05T04:11:59;148345.38;;;4.25;100.00
6599;BME280;3335;43.198;27.918;2023-03-05T04:14:26;148341.63;;;4.24;100.00
6599;BME280;3335;43.198;27.918;2023-03-05T04:16:53;148284.44;;;4.01;100.00
6599;BME280;3335;43.198;27.918;2023-03-05T04:19:20;148330.44;;;4.19;100.00
6599;BME280;3335;43.198;27.918;2023-03-05T04:21:49;148331.69;;;4.20;100.00
6599;BME280;3335;43.198;27.918;2023-03-05T04:24:16;148315.56;;;4.13;100.00
6599;BME280;3335;43.198;27.918;2023-03-05T04:26:42;148315.56;;;4.13;100.00
6599;BME280;3335;43.198;27.918;2023-03-05T04:29:09;148319.25;;;4.15;100.00
6599;BME280;3335;43.198;27.918;2023-03-05T04:31:36;148321.75;;;4.16;100.00
6599;BME280;3335;43.198;27.918;2023-03-05T04:34:03;148320.50;;;4.15;100.00
6599;BME280;3335;43.198;27.918;2023-03-05T04:36:30;148304.31;;;4.09;100.00
6599;BME280;3335;43.198;27.918;2023-03-05T04:38:58;148340.38;;;4.23;100.00
6599;BME280;3335;43.198;27.918;2023-03-05T04:41:25;148352.81;;;4.28;100.00
6599;BME280;3335;43.198;27.918;2023-03-05T04:43:52;148345.38;;;4.25;100.00
6599;BME280;3335;43.198;27.918;2023-03-05T04:46:19;148350.34;;;4.27;100.00
6599;BME280;3335;43.198;27.918;2023-03-05T04:48:46;148347.84;;;4.26;100.00
6599;BME280;3335;43.198;27.918;2023-03-05T04:51:13;148350.34;;;4.27;100.00
6599;BME280;3335;43.198;27.918;2023-03-05T04:53:40;148342.88;;;4.24;100.00
6599;BME280;3335;43.198;27.918;2023-03-05T04:56:08;148355.31;;;4.29;100.00
6599;BME280;3335;43.198;27.918;2023-03-05T04:58:35;148360.28;;;4.31;100.00
6599;BME280;3335;43.198;27.918;2023-03-05T05:01:03;148375.19;;;4.37;100.00
6599;BME280;3335;43.198;27.918;2023-03-05T05:03:30;148360.28;;;4.31;100.00
6599;BME280;3335;43.198;27.918;2023-03-05T05:05:58;148387.63;;;4.43;100.00
6599;BME280;3335;43.198;27.918;2023-03-05T05:08:26;148412.47;;;4.53;100.00
6599;BME280;3335;43.198;27.918;2023-03-05T05:10:57;148410.00;;;4.52;100.00
6599;BME280;3335;43.198;27.918;2023-03-05T05:13:26;148419.97;;;4.56;100.00
6599;BME280;3335;43.198;27.918;2023-03-05T05:15:53;148444.81;;;4.66;100.00
6599;BME280;3335;43.198;27.918;2023-03-05T05:18:20;148434.88;;;4.62;100.00
6599;BME280;3335;43.198;27.918;2023-03-05T05:20:48;148458.50;;;4.71;100.00
6599;BME280;3335;43.198;27.918;2023-03-05T05:23:15;148447.28;;;4.67;100.00
6599;BME280;3335;43.198;27.918;2023-03-05T05:25:43;148453.53;;;4.69;100.00
6599;BME280;3335;43.198;27.918;2023-03-05T05:28:10;148457.25;;;4.71;100.00
6599;BME280;3335;43.198;27.918;2023-03-05T05:30:39;148451.03;;;4.68;100.00
6599;BME280;3335;43.198;27.918;2023-03-05T05:33:06;148449.78;;;4.68;100.00
6599;BME280;3335;43.198;27.918;2023-03-05T05:35:33;148463.47;;;4.73;100.00
6599;BME280;3335;43.198;27.918;2023-03-05T05:38:04;148492.06;;;4.85;100.00
6599;BME280;3335;43.198;27.918;2023-03-05T05:40:31;148507.00;;;4.91;100.00
6599;BME280;3335;43.198;27.918;2023-03-05T05:42:58;148529.38;;;5.00;100.00
6599;BME280;3335;43.198;27.918;2023-03-05T05:45:25;148521.94;;;4.97;100.00
6599;BME280;3335;43.198;27.918;2023-03-05T05:47:53;148529.38;;;5.00;100.00
6599;BME280;3335;43.198;27.918;2023-03-05T05:50:20;148554.25;;;5.10;100.00
6599;BME280;3335;43.198;27.918;2023-03-05T05:52:47;148561.72;;;5.13;100.00
6599;BME280;3335;43.198;27.918;2023-03-05T05:55:14;148577.91;;;5.20;100.00
6599;BME280;3335;43.198;27.918;2023-03-05T05:57:41;148582.91;;;5.22;100.00
6599;BME280;3335;43.198;27.918;2023-03-05T06:00:11;148590.34;;;5.25;100.00
6599;BME280;3335;43.198;27.918;2023-03-05T06:02:40;148663.75;;;5.55;100.00
6599;BME280;3335;43.198;27.918;2023-03-05T06:05:11;148627.69;;;5.40;100.00
6599;BME280;3335;43.198;27.918;2023-03-05T06:07:39;148681.16;;;5.62;100.00
6599;BME280;3335;43.198;27.918;2023-03-05T06:10:08;148708.56;;;5.73;100.00
6599;BME280;3335;43.198;27.918;2023-03-05T06:12:35;148693.59;;;5.67;100.00
6599;BME280;3335;43.198;27.918;2023-03-05T06:15:02;148706.06;;;5.72;100.00
6599;BME280;3335;43.198;27.918;2023-03-05T06:17:28;148713.50;;;5.75;100.00
6599;BME280;3335;43.198;27.918;2023-03-05T06:19:55;148725.94;;;5.80;100.00
6599;BME280;3335;43.198;27.918;2023-03-05T06:22:24;148730.94;;;5.82;100.00
6599;BME280;3335;43.198;27.918;2023-03-05T06:24:51;148742.19;;;5.87;100.00
6599;BME280;3335;43.198;27.918;2023-03-05T06:27:18;148757.16;;;5.93;100.00
6599;BME280;3335;43.198;27.918;2023-03-05T06:29:45;148774.53;;;6.00;100.00
6599;BME280;3335;43.198;27.918;2023-03-05T06:32:12;148779.56;;;6.02;100.00
6599;BME280;3335;43.198;27.918;2023-03-05T06:34:39;148789.50;;;6.06;100.00
6599;BME280;3335;43.198;27.918;2023-03-05T06:37:06;148790.75;;;6.06;100.00
6599;BME280;3335;43.198;27.918;2023-03-05T06:39:34;148824.34;;;6.20;100.00
6599;BME280;3335;43.198;27.918;2023-03-05T06:42:01;148838.06;;;6.26;100.00
6599;BME280;3335;43.198;27.918;2023-03-05T06:44:28;148855.47;;;6.33;100.00
6599;BME280;3335;43.198;27.918;2023-03-05T06:46:55;148869.16;;;6.38;100.00
6599;BME280;3335;43.198;27.918;2023-03-05T06:49:22;148887.88;;;6.46;100.00
6599;BME280;3335;43.198;27.918;2023-03-05T06:51:49;148895.34;;;6.49;100.00
6599;BME280;3335;43.198;27.918;2023-03-05T06:54:16;148907.78;;;6.54;100.00
6599;BME280;3335;43.198;27.918;2023-03-05T06:56:45;148909.03;;;6.54;100.00
6599;BME280;3335;43.198;27.918;2023-03-05T06:59:14;148904.03;;;6.52;100.00
6599;BME280;3335;43.198;27.918;2023-03-05T07:01:41;148942.66;;;6.68;100.00
6599;BME280;3335;43.198;27.918;2023-03-05T07:04:09;148951.38;;;6.72;100.00
6599;BME280;3335;43.198;27.918;2023-03-05T07:06:38;148962.56;;;6.76;100.00
6599;BME280;3335;43.198;27.918;2023-03-05T07:09:07;148982.50;;;6.84;100.00
6599;BME280;3335;43.198;27.918;2023-03-05T07:11:36;149002.44;;;6.92;100.00
6599;BME280;3335;43.198;27.918;2023-03-05T07:14:04;149007.41;;;6.94;100.00
6599;BME280;3335;43.198;27.918;2023-03-05T07:16:32;149027.38;;;7.02;100.00
6599;BME280;3335;43.198;27.918;2023-03-05T07:19:01;149009.91;;;6.95;100.00
6599;BME280;3335;43.198;27.918;2023-03-05T07:21:31;149072.22;;;7.21;100.00
6599;BME280;3335;43.198;27.918;2023-03-05T07:23:59;149089.63;;;7.28;100.00
6599;BME280;3335;43.198;27.918;2023-03-05T07:26:27;149119.56;;;7.40;100.00
6599;BME280;3335;43.198;27.918;2023-03-05T07:28:55;149156.97;;;7.55;100.00
6599;BME280;3335;43.198;27.918;2023-03-05T07:31:25;149169.44;;;7.60;100.00
6599;BME280;3335;43.198;27.918;2023-03-05T07:33:56;149180.66;;;7.65;100.00
6599;BME280;3335;43.198;27.918;2023-03-05T07:36:23;149199.31;;;7.72;100.00
6599;BME280;3335;43.198;27.918;2023-03-05T07:38:50;149216.75;;;7.79;100.00
6599;BME280;3335;43.198;27.918;2023-03-05T07:41:18;149214.28;;;7.78;100.00
6599;BME280;3335;43.198;27.918;2023-03-05T07:43:46;149198.06;;;7.72;100.00
6599;BME280;3335;43.198;27.918;2023-03-05T07:46:15;149229.22;;;7.84;100.00
6599;BME280;3335;43.198;27.918;2023-03-05T07:48:43;149236.72;;;7.87;100.00
6599;BME280;3335;43.198;27.918;2023-03-05T07:51:13;149239.22;;;7.88;100.00
6599;BME280;3335;43.198;27.918;2023-03-05T07:53:41;149276.59;;;8.04;100.00
6599;BME280;3335;43.198;27.918;2023-03-05T07:56:08;149291.56;;;8.10;100.00
6599;BME280;3335;43.198;27.918;2023-03-05T07:58:35;149300.28;;;8.13;100.00
6599;BME280;3335;43.198;27.918;2023-03-05T08:01:02;149314.00;;;8.19;100.00
6599;BME280;3335;43.198;27.918;2023-03-05T08:03:29;149341.50;;;8.30;100.00
6599;BME280;3335;43.198;27.918;2023-03-05T08:05:57;149366.47;;;8.40;100.00
6599;BME280;3335;43.198;27.918;2023-03-05T08:08:24;149407.59;;;8.57;100.00
6599;BME280;3335;43.198;27.918;2023-03-05T08:10:51;149451.25;;;8.74;100.00
6599;BME280;3335;43.198;27.918;2023-03-05T08:13:18;149493.69;;;8.92;100.00
6599;BME280;3335;43.198;27.918;2023-03-05T08:15:45;149521.09;;;9.03;100.00
6599;BME280;3335;43.198;27.918;2023-03-05T08:18:12;149534.84;;;9.08;100.00
6599;BME280;3335;43.198;27.918;2023-03-05T08:20:39;149563.56;;;9.20;100.00
6599;BME280;3335;43.198;27.918;2023-03-05T08:23:08;149581.00;;;9.27;100.00
6599;BME280;3335;43.198;27.918;2023-03-05T08:25:35;149573.53;;;9.24;100.00
6599;BME280;3335;43.198;27.918;2023-03-05T08:28:03;149563.56;;;9.20;100.00
6599;BME280;3335;43.198;27.918;2023-03-05T08:30:30;149603.47;;;9.36;100.00
6599;BME280;3335;43.198;27.918;2023-03-05T08:32:57;149613.50;;;9.40;100.00
6599;BME280;3335;43.198;27.918;2023-03-05T08:35:24;149665.88;;;9.61;100.00
6599;BME280;3335;43.198;27.918;2023-03-05T08:37:51;149710.81;;;9.80;100.00
6599;BME280;3335;43.198;27.918;2023-03-05T08:40:19;149773.25;;;10.05;100.00
6599;BME280;3335;43.198;27.918;2023-03-05T08:42:46;149824.53;;;10.26;100.00
6599;BME280;3335;43.198;27.918;2023-03-05T08:45:13;149883.25;;;10.49;100.00
6599;BME280;3335;43.198;27.918;2023-03-05T08:47:40;149905.72;;;10.59;100.00
6599;BME280;3335;43.198;27.918;2023-03-05T08:50:08;149914.44;;;10.62;100.00
6599;BME280;3335;43.198;27.918;2023-03-05T08:52:35;149918.22;;;10.64;100.00
6599;BME280;3335;43.198;27.918;2023-03-05T08:55:02;149928.19;;;10.68;100.00
6599;BME280;3335;43.198;27.918;2023-03-05T08:57:31;149888.22;;;10.51;100.00
6599;BME280;3335;43.198;27.918;2023-03-05T08:59:58;149875.72;;;10.46;100.00
6599;BME280;3335;43.198;27.918;2023-03-05T09:02:25;149890.72;;;10.52;100.00
6599;BME280;3335;43.198;27.918;2023-03-05T09:04:52;149918.22;;;10.64;100.00
6599;BME280;3335;43.198;27.918;2023-03-05T09:07:18;149898.19;;;10.56;100.00
6599;BME280;3335;43.198;27.918;2023-03-05T09:09:45;149938.19;;;10.72;100.00
6599;BME280;3335;43.198;27.918;2023-03-05T09:12:12;149966.91;;;10.83;100.00
6599;BME280;3335;43.198;27.918;2023-03-05T09:14:41;149968.16;;;10.84;100.00
6599;BME280;3335;43.198;27.918;2023-03-05T09:17:08;149961.94;;;10.81;100.00
6599;BME280;3335;43.198;27.918;2023-03-05T09:19:35;150048.16;;;11.16;100.00
6599;BME280;3335;43.198;27.918;2023-03-05T09:22:02;150090.63;;;11.33;100.00
6599;BME280;3335;43.198;27.918;2023-03-05T09:24:30;150150.66;;;11.58;100.00
6599;BME280;3335;43.198;27.918;2023-03-05T09:26:58;150238.19;;;11.93;100.00
6599;BME280;3335;43.198;27.918;2023-03-05T09:29:25;150293.25;;;12.15;100.00
6599;BME280;3335;43.198;27.918;2023-03-05T09:31:53;150320.72;;;12.26;100.00
6599;BME280;3335;43.198;27.918;2023-03-05T09:34:20;150305.75;;;12.20;100.00
6599;BME280;3335;43.198;27.918;2023-03-05T09:36:48;150325.75;;;12.28;100.00
6599;BME280;3335;43.198;27.918;2023-03-05T09:39:15;150308.22;;;12.21;100.00
6599;BME280;3335;43.198;27.918;2023-03-05T09:41:59;150290.75;;;12.14;100.00
6599;BME280;3335;43.198;27.918;2023-03-05T09:44:34;150348.25;;;12.38;100.00
6599;BME280;3335;43.198;27.918;2023-03-05T09:47:18;149950.69;;;10.77;100.00
6599;BME280;3335;43.198;27.918;2023-03-05T09:49:54;150325.75;;;12.28;100.00
6599;BME280;3335;43.198;27.918;2023-03-05T09:52:33;150313.25;;;12.23;100.00
6599;BME280;3335;43.198;27.918;2023-03-05T09:55:03;150340.78;;;12.35;100.00
6599;BME280;3335;43.198;27.918;2023-03-05T09:57:40;150335.75;;;12.33;100.00
6599;BME280;3335;43.198;27.918;2023-03-05T10:00:20;150370.78;;;12.47;100.00
6599;BME280;3335;43.198;27.918;2023-03-05T10:02:53;150369.53;;;12.46;100.00
6599;BME280;3335;43.198;27.918;2023-03-05T10:05:27;150377.06;;;12.49;100.00
6599;BME280;3335;43.198;27.918;2023-03-05T10:07:58;150405.81;;;12.61;100.00
6599;BME280;3335;43.198;27.918;2023-03-05T10:10:35;150422.09;;;12.67;100.00
6599;BME280;3335;43.198;27.918;2023-03-05T10:13:11;150430.84;;;12.71;100.00
6599;BME280;3335;43.198;27.918;2023-03-05T10:15:43;150455.88;;;12.81;100.00
6599;BME280;3335;43.198;27.918;2023-03-05T10:18:23;150478.38;;;12.90;100.00
6599;BME280;3335;43.198;27.918;2023-03-05T10:20:57;150475.88;;;12.89;100.00
6599;BME280;3335;43.198;27.918;2023-03-05T10:23:29;150440.84;;;12.75;100.00
6599;BME280;3335;43.198;27.918;2023-03-05T10:26:05;150498.38;;;12.98;100.00
6599;BME280;3335;43.198;27.918;2023-03-05T10:28:42;150533.47;;;13.12;100.00
6599;BME280;3335;43.198;27.918;2023-03-05T10:31:24;150591.06;;;13.36;100.00
6599;BME280;3335;43.198;27.918;2023-03-05T10:34:18;150648.63;;;13.59;100.00
6599;BME280;3335;43.198;27.918;2023-03-05T10:37:00;150606.09;;;13.42;100.00
6599;BME280;3335;43.198;27.918;2023-03-05T10:39:44;150646.16;;;13.58;100.00
6599;BME280;3335;43.198;27.918;2023-03-05T10:42:24;150628.63;;;13.51;100.00
6599;BME280;3335;43.198;27.918;2023-03-05T10:44:54;150577.31;;;13.30;100.00
6599;BME280;3335;43.198;27.918;2023-03-05T10:47:25;150538.50;;;13.14;100.00
6599;BME280;3335;43.198;27.918;2023-03-05T10:49:56;150434.59;;;12.73;100.00
6599;BME280;3335;43.198;27.918;2023-03-05T10:52:29;150318.25;;;12.25;100.00
6599;BME280;3335;43.198;27.918;2023-03-05T10:54:57;150266.97;;;12.05;100.00
6599;BME280;3335;43.198;27.918;2023-03-05T10:57:25;150244.47;;;11.96;100.00
6599;BME280;3335;43.198;27.918;2023-03-05T10:59:53;150191.94;;;11.74;100.00
6599;BME280;3335;43.198;27.918;2023-03-05T11:02:23;150120.63;;;11.46;100.00
6599;BME280;3335;43.198;27.918;2023-03-05T11:04:51;150071.91;;;11.26;100.00
6599;BME280;3335;43.198;27.918;2023-03-05T11:07:32;150050.63;;;11.17;100.00
6599;BME280;3335;43.198;27.918;2023-03-05T11:10:08;149964.44;;;10.82;100.00
6599;BME280;3335;43.198;27.918;2023-03-05T11:12:39;149936.94;;;10.71;100.00
6599;BME280;3335;43.198;27.918;2023-03-05T11:15:23;149916.97;;;10.63;100.00
6599;BME280;3335;43.198;27.918;2023-03-05T11:18:17;149828.25;;;10.27;100.00
6599;BME280;3335;43.198;27.918;2023-03-05T11:20:46;149874.47;;;10.46;100.00
6599;BME280;3335;43.198;27.918;2023-03-05T11:23:17;149719.59;;;9.83;100.00
6599;BME280;3335;43.198;27.918;2023-03-05T11:25:53;149833.25;;;10.29;100.00
6599;BME280;3335;43.198;27.918;2023-03-05T11:28:23;149830.75;;;10.28;100.00
6599;BME280;3335;43.198;27.918;2023-03-05T11:31:00;149855.75;;;10.38;100.00
6599;BME280;3335;43.198;27.918;2023-03-05T11:33:28;149881.97;;;10.49;100.00
6599;BME280;3335;43.198;27.918;2023-03-05T11:36:22;149884.50;;;10.50;100.00
6599;BME280;3335;43.198;27.918;2023-03-05T11:38:53;149903.22;;;10.58;100.00
6599;BME280;3335;43.198;27.918;2023-03-05T11:41:26;149913.19;;;10.62;100.00
6599;BME280;3335;43.198;27.918;2023-03-05T11:43:54;149926.94;;;10.67;100.00
6599;BME280;3335;43.198;27.918;2023-03-05T11:46:22;149953.19;;;10.78;100.00
6599;BME280;3335;43.198;27.918;2023-03-05T11:48:52;149931.91;;;10.69;100.00
6599;BME280;3335;43.198;27.918;2023-03-05T11:51:24;149958.16;;;10.80;100.00
6599;BME280;3335;43.198;27.918;2023-03-05T11:53:55;149918.22;;;10.64;100.00
6599;BME280;3335;43.198;27.918;2023-03-05T11:56:26;149918.22;;;10.64;100.00
6599;BME280;3335;43.198;27.918;2023-03-05T11:58:59;149948.19;;;10.76;100.00
6599;BME280;3335;43.198;27.918;2023-03-05T12:01:31;149941.94;;;10.73;100.00
6599;BME280;3335;43.198;27.918;2023-03-05T12:03:59;149953.19;;;10.78;100.00
6599;BME280;3335;43.198;27.918;2023-03-05T12:06:28;149966.91;;;10.83;100.00
6599;BME280;3335;43.198;27.918;2023-03-05T12:09:07;149960.69;;;10.81;100.00
6599;BME280;3335;43.198;27.918;2023-03-05T12:11:37;149955.66;;;10.79;100.00
6599;BME280;3335;43.198;27.918;2023-03-05T12:14:08;149946.91;;;10.75;100.00
6599;BME280;3335;43.198;27.918;2023-03-05T12:16:42;149960.69;;;10.81;100.00
6599;BME280;3335;43.198;27.918;2023-03-05T12:19:29;149909.44;;;10.60;100.00
6599;BME280;3335;43.198;27.918;2023-03-05T12:21:57;149929.44;;;10.68;100.00
6599;BME280;3335;43.198;27.918;2023-03-05T12:24:38;149965.69;;;10.83;100.00
6599;BME280;3335;43.198;27.918;2023-03-05T12:29:50;149965.69;;;10.83;100.00
6599;BME280;3335;43.198;27.918;2023-03-05T12:32:51;149953.19;;;10.78;100.00
6599;BME280;3335;43.198;27.918;2023-03-05T12:35:23;149920.66;;;10.65;100.00
6599;BME280;3335;43.198;27.918;2023-03-05T12:40:42;149926.94;;;10.67;100.00
6599;BME280;3335;43.198;27.918;2023-03-05T12:43:27;149940.69;;;10.73;100.00
6599;BME280;3335;43.198;27.918;2023-03-05T12:46:22;149855.75;;;10.38;100.00
6599;BME280;3335;43.198;27.918;2023-03-05T12:48:50;149885.69;;;10.50;100.00
6599;BME280;3335;43.198;27.918;2023-03-05T12:51:32;149883.25;;;10.49;100.00
6599;BME280;3335;43.198;27.918;2023-03-05T12:54:22;149894.47;;;10.54;100.00
6599;BME280;3335;43.198;27.918;2023-03-05T12:56:52;149905.72;;;10.59;100.00
6599;BME280;3335;43.198;27.918;2023-03-05T12:59:22;149890.72;;;10.52;100.00
6599;BME280;3335;43.198;27.918;2023-03-05T13:01:52;149873.19;;;10.45;100.00
6599;BME280;3335;43.198;27.918;2023-03-05T13:04:23;149873.19;;;10.45;100.00
6599;BME280;3335;43.198;27.918;2023-03-05T13:06:57;149885.69;;;10.50;100.00
6599;BME280;3335;43.198;27.918;2023-03-05T13:09:26;149890.72;;;10.52;100.00
6599;BME280;3335;43.198;27.918;2023-03-05T13:11:57;149908.19;;;10.60;100.00
6599;BME280;3335;43.198;27.918;2023-03-05T13:14:36;149889.47;;;10.52;100.00
6599;BME280;3335;43.198;27.918;2023-03-05T13:17:31;149923.19;;;10.66;100.00